createdAt,value
2018-12-07T00:03:45.951Z,100207.16
2018-12-07T00:08:48.036Z,100203.28
2018-12-07T00:13:50.110Z,100197.08
2018-12-07T00:18:52.278Z,100190.69
2018-12-07T00:23:54.334Z,100187.52
2018-12-07T00:28:56.510Z,100178.59
2018-12-07T00:33:58.679Z,100171.20
2018-12-07T00:39:00.851Z,100165.63
2018-12-07T00:44:03.423Z,100164.30
2018-12-07T00:49:05.542Z,100162.96
2018-12-07T00:54:07.621Z,100167.14
2018-12-07T00:59:09.794Z,100162.30
2018-12-07T01:04:12.143Z,100151.03
2018-12-07T01:09:14.399Z,100164.98
2018-12-07T01:14:16.872Z,100164.15
2018-12-07T01:19:18.966Z,100156.44
2018-12-07T01:24:21.086Z,100166.97
2018-12-07T01:29:23.162Z,100157.41
2018-12-07T01:34:25.375Z,100146.73
2018-12-07T01:39:27.468Z,100123.56
2018-12-07T01:44:30.022Z,100114.78
2018-12-07T01:49:49.089Z,100109.40
2018-12-07T01:54:52.336Z,100102.55
2018-12-07T01:59:54.419Z,100083.80
2018-12-07T02:04:56.805Z,100080.41
2018-12-07T02:10:06.811Z,100080.33
2018-12-07T02:15:09.089Z,100078.55
2018-12-07T02:20:11.261Z,100083.38
2018-12-07T02:25:14.130Z,100064.47
2018-12-07T02:30:16.411Z,100054.66
2018-12-07T02:35:18.814Z,100064.95
2018-12-07T02:40:20.996Z,100043.22
2018-12-07T02:45:23.179Z,100046.58
2018-12-07T02:50:25.469Z,100040.53
2018-12-07T02:55:27.534Z,100034.59
2018-12-07T03:00:29.683Z,100025.84
2018-12-07T03:05:31.851Z,100014.36
2018-12-07T03:10:34.061Z,100024.07
2018-12-07T03:15:36.249Z,100009.23
2018-12-07T03:20:38.542Z,100015.86
2018-12-07T03:25:40.706Z,99998.00
2018-12-07T03:30:42.858Z,99995.95
2018-12-07T03:35:45.178Z,99994.23
2018-12-07T03:40:48.454Z,99976.02
2018-12-07T03:45:50.585Z,99977.50
2018-12-07T03:50:52.750Z,99989.47
2018-12-07T03:55:54.936Z,99970.59
2018-12-07T04:00:56.986Z,99962.16
2018-12-07T04:05:59.038Z,99959.41
2018-12-07T04:11:01.386Z,99954.70
2018-12-07T04:16:03.690Z,99952.01
2018-12-07T04:21:18.353Z,99952.72
2018-12-07T04:26:20.668Z,99948.88
2018-12-07T04:31:22.867Z,99947.79
2018-12-07T04:36:25.091Z,99937.77
2018-12-07T04:41:27.263Z,99942.77
2018-12-07T04:46:29.543Z,99933.35
2018-12-07T04:56:40.846Z,99921.33
2018-12-07T05:01:43.767Z,99923.28
2018-12-07T05:06:45.963Z,99922.59
2018-12-07T05:11:48.142Z,99922.59
2018-12-07T05:16:50.309Z,99913.80
2018-12-07T05:21:52.496Z,99912.56
2018-12-07T05:26:54.566Z,99908.30
2018-12-07T05:31:56.622Z,99906.98
2018-12-07T05:37:00.014Z,99903.48
2018-12-07T05:42:02.078Z,99901.42
2018-12-07T05:47:04.957Z,99899.67
2018-12-07T05:52:07.069Z,99896.48
2018-12-07T05:57:09.130Z,99902.28
2018-12-07T06:02:11.315Z,99892.42
2018-12-07T06:07:13.570Z,99898.72
2018-12-07T06:12:16.310Z,99908.60
2018-12-07T06:17:18.397Z,99893.86
2018-12-07T06:22:20.746Z,99891.16
2018-12-07T06:27:22.933Z,99889.98
2018-12-07T06:32:24.981Z,99877.78
2018-12-07T06:37:27.068Z,99881.23
2018-12-07T06:42:29.369Z,99870.09
2018-12-07T06:47:31.533Z,99865.23
2018-12-07T06:52:34.626Z,99860.36
2018-12-07T06:57:36.810Z,99858.13
2018-12-07T07:02:38.966Z,99859.84
2018-12-07T07:07:41.207Z,99865.12
2018-12-07T07:12:43.518Z,99855.04
2018-12-07T07:17:45.834Z,99865.10
2018-12-07T07:22:47.958Z,99859.88
2018-12-07T07:27:50.118Z,99850.63
2018-12-07T07:32:52.640Z,99868.41
2018-12-07T07:37:57.776Z,99868.92
2018-12-07T07:43:00.838Z,99861.13
2018-12-07T07:48:03.116Z,99855.59
2018-12-07T07:53:12.146Z,99847.22
2018-12-07T07:58:14.461Z,99839.69
2018-12-07T08:03:16.786Z,99833.72
2018-12-07T08:08:19.398Z,99828.76
2018-12-07T08:13:22.010Z,99826.23
2018-12-07T08:18:24.192Z,99819.78
2018-12-07T08:23:26.302Z,99815.14
2018-12-07T08:28:29.214Z,99808.40
2018-12-07T08:33:31.501Z,99812.45
2018-12-07T08:38:33.930Z,99809.55
2018-12-07T08:43:35.982Z,99799.84
2018-12-07T08:48:38.133Z,99797.86
2018-12-07T08:53:40.358Z,99802.06
2018-12-07T08:58:42.779Z,99790.94
2018-12-07T09:03:45.074Z,99793.11
2018-12-07T09:08:48.515Z,99781.52
2018-12-07T09:13:50.704Z,99768.02
2018-12-07T09:18:52.953Z,99757.26
2018-12-07T09:23:55.333Z,99758.70
2018-12-07T09:28:57.374Z,99759.33
2018-12-07T09:33:59.572Z,99744.16
2018-12-07T09:39:01.985Z,99738.75
2018-12-07T09:44:04.362Z,99726.23
2018-12-07T09:49:06.433Z,99718.67
2018-12-07T09:54:09.056Z,99714.78
2018-12-07T09:59:11.334Z,99704.94
2018-12-07T10:04:13.770Z,99692.23
2018-12-07T10:09:15.905Z,99680.37
2018-12-07T10:14:18.079Z,99673.98
2018-12-07T10:19:20.742Z,99666.16
2018-12-07T10:24:22.945Z,99651.58
2018-12-07T10:29:32.013Z,99636.02
2018-12-07T10:34:34.049Z,99631.91
2018-12-07T10:39:43.316Z,99624.98
2018-12-07T10:44:45.502Z,99611.39
2018-12-07T10:49:47.662Z,99604.41
2018-12-07T10:54:50.053Z,99588.64
2018-12-07T10:59:52.393Z,99596.61
2018-12-07T11:05:00.291Z,99571.99
2018-12-07T11:10:09.029Z,99573.03
2018-12-07T11:15:16.913Z,99570.98
2018-12-07T11:20:24.729Z,99554.71
2018-12-07T11:25:32.774Z,99544.64
2018-12-07T11:30:39.578Z,99528.41
2018-12-07T11:35:42.166Z,99527.75
2018-12-07T11:40:44.338Z,99516.41
2018-12-07T11:45:48.546Z,99503.41
2018-12-07T11:50:50.735Z,99502.66
2018-12-07T11:55:52.914Z,99476.48
2018-12-07T12:00:55.755Z,99472.62
2018-12-07T12:05:57.942Z,99469.09
2018-12-07T12:11:00.373Z,99455.30
2018-12-07T12:16:02.667Z,99440.62
2018-12-07T12:21:05.059Z,99424.08
2018-12-07T12:26:07.445Z,99428.25
2018-12-07T12:31:10.151Z,99411.84
2018-12-07T12:36:16.949Z,99401.07
2018-12-07T12:41:16.539Z,99399.12
2018-12-07T12:46:18.834Z,99368.16
2018-12-07T12:51:20.895Z,99362.91
2018-12-07T12:56:22.974Z,99357.95
2018-12-07T13:01:25.448Z,99340.17
2018-12-07T13:06:27.584Z,99338.40
2018-12-07T13:11:30.010Z,99315.92
2018-12-07T13:16:32.094Z,99312.40
2018-12-07T13:21:34.258Z,99320.42
2018-12-07T13:26:36.461Z,99309.91
2018-12-07T13:31:38.634Z,99307.89
2018-12-07T13:36:40.689Z,99282.45
2018-12-07T13:41:50.211Z,99267.14
2018-12-07T13:46:48.222Z,99269.83
2018-12-07T13:51:50.484Z,99251.09
2018-12-07T13:56:52.657Z,99240.21
2018-12-07T14:01:54.917Z,99233.70
2018-12-07T14:06:58.158Z,99241.03
2018-12-07T14:12:00.485Z,99229.69
2018-12-07T14:17:02.899Z,99212.48
2018-12-07T14:22:05.388Z,99199.73
2018-12-07T14:27:08.524Z,99190.73
2018-12-07T14:32:11.043Z,99160.70
2018-12-07T14:37:14.680Z,99164.95
2018-12-07T14:42:17.266Z,99136.05
2018-12-07T14:47:20.075Z,99123.89
2018-12-07T14:52:22.538Z,99119.90
2018-12-07T14:57:24.982Z,99129.75
2018-12-07T15:02:27.512Z,99130.98
2018-12-07T15:07:30.079Z,99116.80
2018-12-07T15:12:32.443Z,99107.31
2018-12-07T15:17:34.763Z,99086.16
2018-12-07T15:22:37.286Z,99099.92
2018-12-07T15:27:39.627Z,99073.66
2018-12-07T15:32:42.995Z,99059.28
2018-12-07T15:37:45.273Z,99034.13
2018-12-07T15:42:47.588Z,99013.72
2018-12-07T15:47:50.496Z,99007.93
2018-12-07T15:52:53.720Z,99009.39
2018-12-07T15:57:56.126Z,99003.59
2018-12-07T16:02:58.436Z,99004.13
2018-12-07T16:08:00.820Z,98992.02
2018-12-07T16:13:03.162Z,98981.95
2018-12-07T16:18:05.549Z,98990.45
2018-12-07T16:23:07.825Z,98977.34
2018-12-07T16:28:10.207Z,98946.49
2018-12-07T16:33:12.635Z,98962.43
2018-12-07T16:38:14.703Z,98961.25
2018-12-07T16:43:17.110Z,98948.53
2018-12-07T16:48:19.516Z,98951.67
2018-12-07T16:53:22.081Z,98943.31
2018-12-07T16:58:24.472Z,98925.67
2018-12-07T17:03:26.818Z,98927.31
2018-12-07T17:08:29.074Z,98919.86
2018-12-07T17:13:31.505Z,98895.38
2018-12-07T17:18:34.008Z,98874.53
2018-12-07T17:23:36.278Z,98883.41
2018-12-07T17:28:38.626Z,98883.20
2018-12-07T17:33:40.952Z,98884.53
2018-12-07T17:38:43.306Z,98874.11
2018-12-07T17:43:45.646Z,98869.34
2018-12-07T17:48:48.008Z,98857.19
2018-12-07T17:53:50.308Z,98859.02
2018-12-07T17:58:53.983Z,98844.16
2018-12-07T18:03:56.374Z,98849.02
2018-12-07T18:08:58.630Z,98842.82
2018-12-07T18:14:00.979Z,98841.37
2018-12-07T18:19:03.846Z,98824.53
2018-12-07T18:24:06.223Z,98825.44
2018-12-07T18:29:09.585Z,98831.84
2018-12-07T18:34:11.961Z,98817.30
2018-12-07T18:39:14.368Z,98820.58
2018-12-07T18:44:16.934Z,98794.53
2018-12-07T18:49:19.772Z,98785.97
2018-12-07T18:54:22.088Z,98785.03
2018-12-07T18:59:24.225Z,98771.48
2018-12-07T19:04:26.386Z,98780.23
2018-12-07T19:09:29.080Z,98774.19
2018-12-07T19:14:31.778Z,98778.83
2018-12-07T19:19:34.115Z,98786.27
2018-12-07T19:24:43.488Z,98779.83
2018-12-07T19:29:46.008Z,98771.27
2018-12-07T19:34:48.675Z,98750.95
2018-12-07T19:39:52.028Z,98730.95
2018-12-07T19:44:54.353Z,98710.95
2018-12-07T19:49:56.768Z,98714.58
2018-12-07T19:54:59.430Z,98670.97
2018-12-07T20:00:03.579Z,98676.52
2018-12-07T20:05:06.644Z,98701.53
2018-12-07T20:10:09.232Z,98701.03
2018-12-07T20:15:11.833Z,98692.04
2018-12-07T20:20:14.165Z,98692.78
2018-12-07T20:25:16.785Z,98696.08
2018-12-07T20:30:20.165Z,98706.44
2018-12-07T20:35:22.494Z,98695.39
2018-12-07T20:40:24.686Z,98700.34
2018-12-07T20:45:27.167Z,98681.66
2018-12-07T20:50:29.627Z,98680.91
2018-12-07T20:55:32.234Z,98677.42
2018-12-07T21:00:34.677Z,98677.02
2018-12-07T21:11:31.970Z,98638.17
2018-12-07T21:17:49.505Z,98658.50
2018-12-07T21:22:51.832Z,98650.27
2018-12-07T21:27:54.476Z,98647.16
2018-12-07T21:32:56.732Z,98653.05
2018-12-07T21:37:58.829Z,98631.96
2018-12-07T21:43:01.133Z,98644.86
2018-12-07T21:48:24.998Z,98646.31
2018-12-07T21:53:27.114Z,98649.72
2018-12-07T21:58:29.370Z,98646.11
2018-12-07T22:03:31.674Z,98645.59
2018-12-07T22:08:41.912Z,98653.77
2018-12-07T22:13:44.465Z,98635.16
2018-12-07T22:18:54.257Z,98646.95
2018-12-07T22:23:56.829Z,98646.52
2018-12-07T22:34:34.620Z,98626.57
2018-12-07T22:39:37.093Z,98672.39
2018-12-07T22:44:39.937Z,98661.23
2018-12-07T22:49:42.669Z,98696.81
2018-12-07T22:54:44.734Z,98692.67
2018-12-07T22:59:48.250Z,98714.88
2018-12-07T23:04:50.574Z,98755.05
2018-12-07T23:09:52.695Z,98775.56
2018-12-07T23:14:54.999Z,98824.14
2018-12-07T23:19:57.166Z,98850.17
2018-12-07T23:24:59.502Z,98870.72
2018-12-07T23:30:01.775Z,98872.66
2018-12-07T23:35:04.745Z,98903.34
2018-12-07T23:40:08.010Z,98911.36
2018-12-07T23:45:10.317Z,98933.36
2018-12-07T23:50:12.598Z,98949.17
2018-12-07T23:55:14.921Z,98967.04
